createdAt,value
2023-01-04T00:00:12.355Z,86.46
2023-01-04T00:03:18.994Z,86.49
2023-01-04T00:06:26.183Z,87.34
2023-01-04T00:09:32.804Z,86.46
2023-01-04T00:12:39.325Z,86.03
2023-01-04T00:15:44.446Z,85.89
2023-01-04T00:18:52.425Z,85.34
2023-01-04T00:21:57.828Z,85.29
2023-01-04T00:25:04.196Z,86.64
2023-01-04T00:28:10.067Z,86.24
2023-01-04T00:31:23.663Z,86.17
2023-01-04T00:34:30.356Z,85.60
2023-01-04T00:37:35.449Z,85.42
2023-01-04T00:40:40.956Z,85.24
2023-01-04T00:43:46.598Z,85.47
2023-01-04T00:46:51.841Z,85.20
2023-01-04T00:49:57.459Z,84.40
2023-01-04T00:53:05.814Z,83.90
2023-01-04T00:56:15.670Z,84.14
2023-01-04T00:59:20.515Z,84.11
2023-01-04T01:02:26.138Z,83.71
2023-01-04T01:05:32.870Z,84.22
2023-01-04T01:08:39.167Z,84.77
2023-01-04T01:11:46.319Z,84.95
2023-01-04T01:14:55.970Z,85.27
2023-01-04T01:17:59.998Z,86.18
2023-01-04T01:21:05.445Z,87.01
2023-01-04T01:24:10.870Z,86.36
2023-01-04T01:27:16.463Z,85.58
2023-01-04T01:30:23.229Z,86.14
2023-01-04T01:33:28.449Z,85.73
2023-01-04T01:36:34.732Z,85.18
2023-01-04T01:39:40.797Z,85.38
2023-01-04T01:42:46.446Z,86.22
2023-01-04T01:45:52.751Z,85.63
2023-01-04T01:48:58.924Z,85.55
2023-01-04T01:52:03.977Z,84.75
2023-01-04T01:55:13.820Z,84.58
2023-01-04T01:58:20.600Z,84.23
2023-01-04T02:01:25.580Z,83.26
2023-01-04T02:04:32.016Z,83.01
2023-01-04T02:07:39.544Z,83.39
2023-01-04T02:10:44.903Z,84.50
2023-01-04T02:14:08.780Z,84.05
2023-01-04T02:17:49.431Z,83.31
2023-01-04T02:21:21.018Z,83.18
2023-01-04T02:24:49.803Z,83.43
2023-01-04T02:28:03.535Z,82.59
2023-01-04T02:31:39.085Z,81.12
2023-01-04T02:35:21.433Z,81.01
2023-01-04T02:38:45.218Z,81.77
2023-01-04T02:42:16.249Z,81.51
2023-01-04T02:45:22.276Z,80.21
2023-01-04T02:48:45.206Z,80.63
2023-01-04T02:51:52.513Z,80.50
2023-01-04T02:54:59.283Z,80.00
2023-01-04T02:58:18.867Z,79.38
2023-01-04T03:02:09.526Z,78.89
2023-01-04T03:05:47.393Z,79.09
2023-01-04T03:09:05.359Z,78.53
2023-01-04T03:12:32.734Z,78.21
2023-01-04T03:15:43.001Z,78.08
2023-01-04T03:18:52.117Z,78.18
2023-01-04T03:21:58.921Z,78.21
2023-01-04T03:25:21.935Z,78.38
2023-01-04T03:28:46.221Z,78.81
2023-01-04T03:32:18.994Z,79.42
2023-01-04T03:35:34.753Z,78.52
2023-01-04T03:39:25.226Z,78.00
2023-01-04T03:43:17.068Z,76.94
2023-01-04T03:46:41.631Z,77.17
2023-01-04T03:49:57.088Z,77.56
2023-01-04T03:53:02.253Z,77.75
2023-01-04T03:56:08.141Z,77.65
2023-01-04T03:59:13.764Z,77.30
2023-01-04T04:02:20.687Z,76.95
2023-01-04T04:05:50.819Z,76.42
2023-01-04T04:08:55.836Z,76.07
2023-01-04T04:12:00.847Z,76.12
2023-01-04T04:15:06.918Z,76.61
2023-01-04T04:18:14.332Z,76.45
2023-01-04T04:21:20.058Z,76.21
2023-01-04T04:24:35.623Z,76.02
2023-01-04T04:27:40.261Z,75.88
2023-01-04T04:30:47.714Z,75.98
2023-01-04T04:33:54.162Z,75.85
2023-01-04T04:37:00.209Z,76.15
2023-01-04T04:40:05.565Z,75.56
2023-01-04T04:43:11.926Z,75.87
2023-01-04T04:46:17.283Z,76.44
2023-01-04T04:49:22.584Z,75.93
2023-01-04T04:52:27.756Z,76.61
2023-01-04T04:55:33.593Z,75.67
2023-01-04T04:58:40.241Z,75.64
2023-01-04T05:01:45.904Z,75.26
2023-01-04T05:04:51.997Z,75.83
2023-01-04T05:07:57.765Z,76.54
2023-01-04T05:11:03.292Z,76.76
2023-01-04T05:14:08.801Z,76.82
2023-01-04T05:17:13.593Z,79.72
2023-01-04T05:20:20.443Z,81.40
2023-01-04T05:23:26.886Z,78.30
2023-01-04T05:26:32.127Z,78.33
2023-01-04T05:29:55.018Z,78.29
2023-01-04T05:33:00.530Z,79.12
2023-01-04T05:36:05.961Z,79.20
2023-01-04T05:39:11.094Z,79.26
2023-01-04T05:42:35.166Z,78.39
2023-01-04T05:45:40.154Z,78.33
2023-01-04T05:48:45.496Z,77.59
2023-01-04T05:51:51.598Z,78.45
2023-01-04T05:54:57.797Z,78.86
2023-01-04T05:58:03.111Z,78.67
2023-01-04T06:01:10.053Z,79.90
2023-01-04T06:04:15.603Z,80.26
2023-01-04T06:07:23.601Z,80.28
2023-01-04T06:10:29.639Z,81.10
2023-01-04T06:13:36.368Z,80.34
2023-01-04T06:16:41.374Z,80.96
2023-01-04T06:19:47.528Z,80.76
2023-01-04T06:22:53.967Z,80.44
2023-01-04T06:26:01.097Z,79.64
2023-01-04T06:29:06.916Z,79.66
2023-01-04T06:32:12.863Z,79.87
2023-01-04T06:35:18.304Z,80.04
2023-01-04T06:38:24.123Z,80.12
2023-01-04T06:41:29.743Z,80.14
2023-01-04T06:44:35.627Z,80.13
2023-01-04T06:47:41.355Z,80.51
2023-01-04T06:50:47.580Z,80.43
2023-01-04T06:53:54.317Z,80.39
2023-01-04T06:57:00.114Z,80.38
2023-01-04T07:00:06.654Z,80.03
2023-01-04T07:03:16.018Z,79.65
2023-01-04T07:06:21.255Z,79.81
2023-01-04T07:09:27.512Z,79.51
2023-01-04T07:12:33.376Z,79.86
2023-01-04T07:15:40.892Z,79.00
2023-01-04T07:18:47.186Z,79.21
2023-01-04T07:21:55.433Z,79.13
2023-01-04T07:25:02.331Z,79.04
2023-01-04T07:28:08.273Z,78.78
2023-01-04T07:31:15.236Z,78.49
2023-01-04T07:34:21.807Z,79.07
2023-01-04T07:37:27.795Z,78.98
2023-01-04T07:40:33.223Z,79.08
2023-01-04T07:43:38.391Z,79.08
2023-01-04T07:46:43.847Z,79.21
2023-01-04T07:49:49.761Z,81.34
2023-01-04T07:52:55.780Z,79.46
2023-01-04T07:56:00.550Z,79.22
2023-01-04T07:59:06.167Z,79.23
2023-01-04T08:02:11.568Z,79.49
2023-01-04T08:05:17.289Z,78.62
2023-01-04T08:08:22.202Z,78.36
2023-01-04T08:11:31.851Z,78.46
2023-01-04T08:14:37.557Z,77.61
2023-01-04T08:17:42.922Z,76.97
2023-01-04T08:20:52.117Z,76.84
2023-01-04T08:23:55.921Z,76.96
2023-01-04T08:27:03.849Z,78.34
2023-01-04T08:30:10.298Z,78.48
2023-01-04T08:33:16.343Z,77.50
2023-01-04T08:36:33.030Z,77.35
2023-01-04T08:39:45.319Z,77.06
2023-01-04T08:42:48.334Z,77.27
2023-01-04T08:45:53.611Z,76.96
2023-01-04T08:48:58.833Z,76.68
2023-01-04T08:52:04.466Z,77.00
2023-01-04T08:55:13.920Z,76.79
2023-01-04T08:58:19.117Z,76.13
2023-01-04T09:01:25.840Z,76.01
2023-01-04T09:04:30.710Z,74.82
2023-01-04T09:07:36.748Z,74.45
2023-01-04T09:10:42.808Z,74.63
2023-01-04T09:13:49.634Z,74.77
2023-01-04T09:16:55.677Z,74.52
2023-01-04T09:20:01.533Z,74.26
2023-01-04T09:23:12.889Z,73.59
2023-01-04T09:26:36.744Z,72.61
2023-01-04T09:29:42.127Z,71.13
2023-01-04T09:32:49.920Z,69.75
2023-01-04T09:35:58.748Z,69.65
2023-01-04T09:39:04.071Z,70.04
2023-01-04T09:42:15.079Z,71.07
2023-01-04T09:45:40.193Z,71.42
2023-01-04T09:48:48.650Z,70.47
2023-01-04T09:51:55.660Z,71.63
2023-01-04T09:55:39.455Z,71.47
2023-01-04T09:58:38.979Z,69.14
2023-01-04T10:02:13.072Z,67.62
2023-01-04T10:05:19.745Z,68.93
2023-01-04T10:08:32.741Z,69.07
2023-01-04T10:12:02.373Z,68.21
2023-01-04T10:15:44.029Z,67.21
2023-01-04T10:19:52.205Z,66.53
2023-01-04T10:22:16.238Z,66.66
2023-01-04T10:25:44.775Z,65.93
2023-01-04T10:29:18.790Z,64.83
2023-01-04T10:32:44.165Z,65.26
2023-01-04T10:35:50.931Z,65.78
2023-01-04T10:38:58.049Z,65.51
2023-01-04T10:42:33.577Z,66.68
2023-01-04T10:45:46.471Z,67.64
2023-01-04T10:49:05.370Z,66.07
2023-01-04T10:52:30.870Z,66.25
2023-01-04T10:56:26.244Z,66.08
2023-01-04T10:59:08.061Z,65.58
2023-01-04T11:02:18.208Z,66.03
2023-01-04T11:05:44.387Z,65.57
2023-01-04T11:08:59.301Z,65.57
2023-01-04T11:12:04.322Z,65.05
2023-01-04T11:15:10.712Z,64.65
2023-01-04T11:18:16.936Z,64.75
2023-01-04T11:21:25.282Z,64.74
2023-01-04T11:24:32.909Z,63.62
2023-01-04T11:27:40.470Z,63.86
2023-01-04T11:31:02.677Z,63.71
2023-01-04T11:34:10.931Z,62.97
2023-01-04T11:37:16.318Z,62.88
2023-01-04T11:40:37.037Z,62.49
2023-01-04T11:43:44.311Z,62.82
2023-01-04T11:46:49.683Z,62.42
2023-01-04T11:49:55.407Z,62.29
2023-01-04T11:53:02.124Z,62.47
2023-01-04T11:56:23.515Z,61.80
2023-01-04T11:59:31.817Z,62.86
2023-01-04T12:03:00.761Z,64.15
2023-01-04T12:05:46.918Z,62.94
2023-01-04T12:08:52.212Z,63.20
2023-01-04T12:12:12.387Z,63.75
2023-01-04T12:15:21.516Z,64.75
2023-01-04T12:18:33.311Z,62.74
2023-01-04T12:21:40.720Z,62.79
2023-01-04T12:24:47.732Z,61.26
2023-01-04T12:27:54.421Z,59.15
2023-01-04T12:30:59.440Z,59.17
2023-01-04T12:34:06.293Z,59.20
2023-01-04T12:37:16.924Z,59.57
2023-01-04T12:41:03.453Z,58.63
2023-01-04T12:44:08.905Z,58.62
2023-01-04T12:47:34.286Z,59.18
2023-01-04T12:50:47.836Z,58.74
2023-01-04T12:54:04.540Z,60.10
2023-01-04T12:57:38.688Z,59.60
2023-01-04T13:01:11.369Z,58.36
2023-01-04T13:04:36.444Z,58.65
2023-01-04T13:07:48.131Z,58.31
2023-01-04T13:11:04.615Z,56.86
2023-01-04T13:14:24.949Z,56.59
2023-01-04T13:17:37.316Z,55.55
2023-01-04T13:20:42.500Z,54.21
2023-01-04T13:23:47.750Z,54.45
2023-01-04T13:26:56.612Z,54.75
2023-01-04T13:30:02.797Z,54.89
2023-01-04T13:33:27.360Z,55.48
2023-01-04T13:36:26.983Z,56.29
2023-01-04T13:39:35.464Z,57.38
2023-01-04T13:42:47.480Z,58.10
2023-01-04T13:46:13.500Z,57.09
2023-01-04T13:49:19.239Z,58.00
2023-01-04T13:52:58.395Z,57.67
2023-01-04T13:55:51.753Z,56.37
2023-01-04T13:58:59.054Z,57.41
2023-01-04T14:02:03.898Z,57.92
2023-01-04T14:05:10.241Z,58.11
2023-01-04T14:08:15.913Z,59.35
2023-01-04T14:11:46.766Z,59.68
2023-01-04T14:15:10.348Z,59.45
2023-01-04T14:18:16.381Z,58.90
2023-01-04T14:21:31.748Z,59.35
2023-01-04T14:27:58.827Z,60.71
2023-01-04T14:31:16.134Z,59.80
2023-01-04T14:34:20.936Z,59.54
2023-01-04T14:37:26.497Z,60.88
2023-01-04T14:40:40.497Z,61.45
2023-01-04T14:43:51.316Z,61.11
2023-01-04T14:46:57.631Z,60.74
2023-01-04T14:50:04.052Z,59.70
2023-01-04T14:53:09.715Z,59.47
2023-01-04T14:56:15.334Z,60.46
2023-01-04T14:59:22.752Z,61.21
2023-01-04T15:02:29.178Z,62.23
2023-01-04T15:05:38.047Z,62.54
2023-01-04T15:08:41.685Z,62.82
2023-01-04T15:11:47.099Z,62.38
2023-01-04T15:14:53.628Z,61.99
2023-01-04T15:17:59.656Z,63.19
2023-01-04T15:21:05.100Z,62.93
2023-01-04T15:24:11.218Z,62.20
2023-01-04T15:27:16.870Z,61.82
2023-01-04T15:30:24.926Z,62.44
2023-01-04T15:33:30.375Z,62.78
2023-01-04T15:36:36.463Z,63.26
2023-01-04T15:39:43.614Z,63.48
2023-01-04T15:43:07.867Z,64.27
2023-01-04T15:46:13.586Z,64.75
2023-01-04T15:49:18.845Z,65.35
2023-01-04T15:52:25.718Z,65.15
2023-01-04T15:55:36.166Z,66.59
2023-01-04T15:58:39.480Z,67.08
2023-01-04T16:01:45.678Z,66.79
2023-01-04T16:04:54.241Z,66.82
2023-01-04T16:08:02.260Z,66.28
2023-01-04T16:11:07.994Z,66.04
2023-01-04T16:14:13.655Z,65.90
2023-01-04T16:17:18.995Z,66.66
2023-01-04T16:20:24.730Z,66.68
2023-01-04T16:23:29.851Z,66.72
2023-01-04T16:26:36.319Z,62.99
2023-01-04T16:29:41.586Z,62.80
2023-01-04T16:32:49.756Z,61.52
2023-01-04T16:35:57.648Z,61.76
2023-01-04T16:39:03.804Z,62.18
2023-01-04T16:42:11.133Z,63.04
2023-01-04T16:45:17.318Z,63.88
2023-01-04T16:48:22.591Z,63.49
2023-01-04T16:51:27.897Z,63.72
2023-01-04T16:54:54.191Z,62.95
2023-01-04T16:58:00.149Z,62.63
2023-01-04T17:01:06.750Z,63.05
2023-01-04T17:04:17.486Z,63.71
2023-01-04T17:07:23.296Z,64.02
2023-01-04T17:10:29.822Z,64.20
2023-01-04T17:13:35.293Z,64.58
2023-01-04T17:16:41.065Z,64.22
2023-01-04T17:19:46.500Z,64.23
2023-01-04T17:22:52.265Z,64.94
2023-01-04T17:25:57.999Z,65.10
2023-01-04T17:29:03.764Z,65.18
2023-01-04T17:32:09.215Z,65.37
2023-01-04T17:35:16.903Z,65.22
2023-01-04T17:38:22.416Z,65.23
2023-01-04T17:41:33.768Z,65.19
2023-01-04T17:44:39.624Z,65.49
2023-01-04T17:47:47.072Z,65.55
2023-01-04T17:50:52.794Z,65.46
2023-01-04T17:53:59.585Z,65.56
2023-01-04T17:57:05.260Z,65.74
2023-01-04T18:00:10.268Z,66.03
2023-01-04T18:03:15.350Z,66.27
2023-01-04T18:06:28.102Z,65.87
2023-01-04T18:09:28.853Z,65.53
2023-01-04T18:12:37.020Z,64.95
2023-01-04T18:15:54.990Z,64.97
2023-01-04T18:18:51.177Z,64.37
2023-01-04T18:21:59.032Z,62.29
2023-01-04T18:25:04.734Z,62.59
2023-01-04T18:28:09.855Z,63.21
2023-01-04T18:31:17.419Z,61.49
2023-01-04T18:34:25.735Z,60.60
2023-01-04T18:37:31.482Z,59.60
2023-01-04T18:40:38.098Z,59.02
2023-01-04T18:44:05.306Z,58.08
2023-01-04T18:46:52.337Z,58.05
2023-01-04T18:49:57.333Z,58.18
2023-01-04T18:53:03.167Z,58.90
2023-01-04T18:56:08.908Z,59.49
2023-01-04T18:59:14.871Z,59.81
2023-01-04T19:02:20.471Z,60.14
2023-01-04T19:05:26.390Z,60.70
2023-01-04T19:08:32.005Z,61.21
2023-01-04T19:11:37.847Z,61.31
2023-01-04T19:14:43.776Z,61.48
2023-01-04T19:17:50.165Z,61.70
2023-01-04T19:20:56.948Z,61.89
2023-01-04T19:24:02.346Z,61.80
2023-01-04T19:27:10.326Z,62.16
2023-01-04T19:30:16.474Z,61.94
2023-01-04T19:33:22.271Z,61.86
2023-01-04T19:36:31.069Z,61.67
2023-01-04T19:39:37.098Z,61.82
2023-01-04T19:42:42.439Z,61.60
2023-01-04T19:45:54.282Z,61.74
2023-01-04T19:49:00.840Z,61.78
2023-01-04T19:52:06.722Z,62.12
2023-01-04T19:55:13.652Z,62.41
2023-01-04T19:58:19.455Z,62.83
2023-01-04T20:01:32.156Z,62.96
2023-01-04T20:04:38.947Z,62.87
2023-01-04T20:07:44.466Z,62.96
2023-01-04T20:10:50.245Z,63.39
2023-01-04T20:13:55.949Z,63.90
2023-01-04T20:17:01.674Z,63.99
2023-01-04T20:20:07.669Z,64.15
2023-01-04T20:23:14.576Z,64.09
2023-01-04T20:26:27.459Z,63.85
2023-01-04T20:29:32.910Z,63.94
2023-01-04T20:32:39.082Z,64.20
2023-01-04T20:35:44.844Z,64.40
2023-01-04T20:38:55.277Z,64.52
2023-01-04T20:42:18.948Z,64.66
2023-01-04T20:45:23.874Z,65.02
2023-01-04T20:48:31.342Z,65.43
2023-01-04T20:51:38.975Z,65.04
2023-01-04T20:54:44.556Z,64.78
2023-01-04T20:57:49.699Z,64.92
2023-01-04T21:00:55.653Z,65.03
2023-01-04T21:04:01.235Z,65.12
2023-01-04T21:07:08.278Z,64.93
2023-01-04T21:10:13.750Z,64.74
2023-01-04T21:13:18.887Z,64.89
2023-01-04T21:16:25.722Z,65.08
2023-01-04T21:19:31.785Z,65.28
2023-01-04T21:22:37.367Z,65.24
2023-01-04T21:25:43.851Z,65.51
2023-01-04T21:28:50.356Z,65.58
2023-01-04T21:31:56.132Z,66.56
2023-01-04T21:35:01.154Z,66.92
2023-01-04T21:38:06.732Z,66.99
2023-01-04T21:41:12.543Z,67.12
2023-01-04T21:44:18.052Z,67.60
2023-01-04T21:47:23.711Z,67.66
2023-01-04T21:50:29.600Z,68.06
2023-01-04T21:53:35.356Z,68.35
2023-01-04T21:56:40.498Z,67.95
2023-01-04T21:59:46.611Z,67.87
2023-01-04T22:02:53.724Z,67.83
2023-01-04T22:05:59.937Z,67.54
2023-01-04T22:09:07.090Z,67.72
2023-01-04T22:12:12.701Z,67.64
2023-01-04T22:15:18.264Z,67.29
2023-01-04T22:18:25.373Z,67.35
2023-01-04T22:21:34.420Z,66.69
2023-01-04T22:24:40.519Z,66.44
2023-01-04T22:27:45.852Z,66.40
2023-01-04T22:30:53.897Z,66.70
2023-01-04T22:33:59.912Z,67.23
2023-01-04T22:37:06.060Z,67.55
2023-01-04T22:40:11.585Z,67.37
2023-01-04T22:43:17.575Z,67.69
2023-01-04T22:46:27.629Z,68.01
2023-01-04T22:49:33.068Z,67.75
2023-01-04T22:52:38.083Z,68.09
2023-01-04T22:56:17.878Z,67.96
2023-01-04T22:58:54.189Z,68.08
2023-01-04T23:01:59.470Z,67.56
2023-01-04T23:05:04.626Z,67.51
2023-01-04T23:08:11.461Z,67.88
2023-01-04T23:11:24.575Z,67.78
2023-01-04T23:14:31.508Z,67.94
2023-01-04T23:17:36.314Z,67.90
2023-01-04T23:20:42.191Z,67.48
2023-01-04T23:23:47.499Z,67.15
2023-01-04T23:26:54.047Z,67.56
2023-01-04T23:29:59.809Z,67.95
2023-01-04T23:33:06.323Z,68.04
2023-01-04T23:36:12.402Z,68.49
2023-01-04T23:39:21.611Z,68.90
2023-01-04T23:42:26.988Z,68.63
2023-01-04T23:45:32.446Z,68.27
2023-01-04T23:48:38.450Z,68.32
2023-01-04T23:51:44.635Z,68.21
2023-01-04T23:54:50.388Z,68.76
2023-01-04T23:57:57.146Z,68.78
